createdAt,value
2022-09-18T00:00:42.399Z,991.83
2022-09-18T00:01:42.490Z,991.80
2022-09-18T00:02:42.441Z,991.81
2022-09-18T00:03:42.394Z,991.87
2022-09-18T00:04:42.404Z,991.83
2022-09-18T00:05:42.346Z,991.84
2022-09-18T00:06:42.341Z,991.85
2022-09-18T00:07:42.328Z,991.84
2022-09-18T00:08:42.396Z,991.86
2022-09-18T00:09:42.299Z,991.77
2022-09-18T00:10:42.298Z,991.85
2022-09-18T00:11:42.399Z,991.84
2022-09-18T00:12:42.313Z,991.78
2022-09-18T00:13:42.277Z,991.80
2022-09-18T00:14:42.263Z,991.80
2022-09-18T00:15:42.298Z,991.81
2022-09-18T00:16:42.273Z,991.84
2022-09-18T00:17:42.224Z,991.82
2022-09-18T00:18:42.246Z,991.82
2022-09-18T00:19:42.193Z,991.82
2022-09-18T00:20:42.185Z,991.86
2022-09-18T00:21:42.170Z,991.82
2022-09-18T00:22:42.166Z,991.86
2022-09-18T00:23:42.176Z,991.88
2022-09-18T00:24:42.174Z,991.84
2022-09-18T00:25:42.134Z,991.87
2022-09-18T00:26:42.122Z,991.84
2022-09-18T00:27:42.213Z,991.86
2022-09-18T00:28:42.116Z,991.92
2022-09-18T00:29:42.083Z,991.85
2022-09-18T00:30:42.086Z,991.85
2022-09-18T00:31:42.140Z,991.91
2022-09-18T00:32:42.069Z,991.87
2022-09-18T00:33:42.052Z,991.83
2022-09-18T00:34:42.028Z,991.84
2022-09-18T00:35:42.020Z,991.81
2022-09-18T00:36:42.003Z,991.82
2022-09-18T00:37:42.001Z,991.81
2022-09-18T00:38:42.004Z,991.81
2022-09-18T00:39:42.001Z,991.80
2022-09-18T00:40:41.981Z,991.77
2022-09-18T00:41:41.976Z,991.79
2022-09-18T00:42:41.953Z,991.78
2022-09-18T00:43:42.060Z,991.78
2022-09-18T00:44:41.956Z,991.83
2022-09-18T00:45:41.938Z,991.84
2022-09-18T00:46:42.028Z,991.82
2022-09-18T00:47:41.899Z,991.78
2022-09-18T00:48:41.897Z,991.81
2022-09-18T00:49:41.859Z,991.80
2022-09-18T00:50:41.860Z,991.82
2022-09-18T00:51:41.837Z,991.89
2022-09-18T00:52:41.836Z,991.85
2022-09-18T00:53:41.833Z,991.86
2022-09-18T00:54:41.811Z,991.89
2022-09-18T00:55:41.802Z,991.88
2022-09-18T00:56:41.793Z,991.80
2022-09-18T00:57:41.771Z,991.85
2022-09-18T00:58:41.780Z,991.79
2022-09-18T00:59:41.873Z,991.79
2022-09-18T01:00:41.805Z,991.74
2022-09-18T01:01:41.771Z,991.73
2022-09-18T01:02:41.734Z,991.77
2022-09-18T01:03:41.714Z,991.73
2022-09-18T01:04:41.728Z,991.74
2022-09-18T01:05:41.732Z,991.73
2022-09-18T01:06:41.691Z,991.79
2022-09-18T01:07:41.669Z,991.78
2022-09-18T01:08:44.097Z,991.79
2022-09-18T01:09:41.669Z,991.74
2022-09-18T01:10:41.638Z,991.72
2022-09-18T01:11:41.657Z,991.69
2022-09-18T01:12:41.615Z,991.71
2022-09-18T01:13:41.614Z,991.70
2022-09-18T01:14:41.604Z,991.64
2022-09-18T01:15:41.783Z,991.63
2022-09-18T01:16:41.572Z,991.70
2022-09-18T01:17:41.586Z,991.68
2022-09-18T01:18:41.561Z,991.67
2022-09-18T01:19:41.578Z,991.67
2022-09-18T01:20:41.525Z,991.72
2022-09-18T01:21:41.535Z,991.72
2022-09-18T01:22:41.505Z,991.71
2022-09-18T01:23:41.497Z,991.71
2022-09-18T01:24:41.532Z,991.75
2022-09-18T01:25:41.468Z,991.69
2022-09-18T01:26:41.459Z,991.73
2022-09-18T01:27:41.449Z,991.76
2022-09-18T01:28:41.439Z,991.73
2022-09-18T01:29:41.480Z,991.73
2022-09-18T01:30:41.421Z,991.77
2022-09-18T01:31:41.552Z,991.79
2022-09-18T01:32:41.398Z,991.81
2022-09-18T01:33:41.388Z,991.78
2022-09-18T01:34:41.380Z,991.79
2022-09-18T01:35:42.446Z,991.79
2022-09-18T01:36:41.354Z,991.76
2022-09-18T01:37:41.341Z,991.80
2022-09-18T01:38:41.328Z,991.72
2022-09-18T01:39:41.473Z,991.77
2022-09-18T01:40:41.357Z,991.70
2022-09-18T01:41:41.331Z,991.69
2022-09-18T01:42:41.289Z,991.71
2022-09-18T01:43:41.312Z,991.74
2022-09-18T01:44:41.609Z,991.75
2022-09-18T01:45:41.268Z,991.73
2022-09-18T01:46:41.290Z,991.74
2022-09-18T01:47:41.357Z,991.74
2022-09-18T01:48:41.219Z,991.77
2022-09-18T01:49:41.243Z,991.76
2022-09-18T01:50:41.209Z,991.74
2022-09-18T01:51:41.223Z,991.77
2022-09-18T01:52:41.193Z,991.78
2022-09-18T01:53:41.165Z,991.75
2022-09-18T01:54:41.202Z,991.78
2022-09-18T01:55:41.192Z,991.72
2022-09-18T01:56:41.139Z,991.76
2022-09-18T01:57:41.119Z,991.74
2022-09-18T01:58:41.136Z,991.72
2022-09-18T01:59:41.120Z,991.75
2022-09-18T02:00:41.095Z,991.76
2022-09-18T02:01:41.225Z,991.76
2022-09-18T02:02:41.134Z,991.69
2022-09-18T02:03:41.180Z,991.76
2022-09-18T02:04:41.061Z,991.78
2022-09-18T02:05:41.031Z,991.78
2022-09-18T02:06:41.026Z,991.71
2022-09-18T02:07:41.031Z,991.71
2022-09-18T02:08:40.996Z,991.73
2022-09-18T02:09:41.018Z,991.74
2022-09-18T02:10:40.986Z,991.75
2022-09-18T02:11:40.969Z,991.70
2022-09-18T02:12:40.986Z,991.75
2022-09-18T02:13:40.952Z,991.69
2022-09-18T02:14:40.961Z,991.72
2022-09-18T02:15:40.982Z,991.69
2022-09-18T02:16:40.937Z,991.70
2022-09-18T02:17:40.909Z,991.70
2022-09-18T02:18:40.897Z,991.70
2022-09-18T02:19:41.016Z,991.72
2022-09-18T02:20:40.881Z,991.76
2022-09-18T02:21:40.889Z,991.75
2022-09-18T02:22:40.867Z,991.77
2022-09-18T02:23:40.855Z,991.76
2022-09-18T02:24:40.880Z,991.74
2022-09-18T02:25:40.834Z,991.77
2022-09-18T02:26:40.801Z,991.75
2022-09-18T02:27:40.806Z,991.78
2022-09-18T02:28:40.789Z,991.80
2022-09-18T02:29:40.819Z,991.83
2022-09-18T02:30:40.796Z,991.79
2022-09-18T02:31:40.823Z,991.81
2022-09-18T02:32:40.743Z,991.75
2022-09-18T02:33:40.732Z,991.72
2022-09-18T02:34:40.720Z,991.77
2022-09-18T02:35:40.820Z,991.79
2022-09-18T02:36:40.744Z,991.77
2022-09-18T02:37:40.685Z,991.77
2022-09-18T02:38:40.724Z,991.82
2022-09-18T02:39:40.722Z,991.76
2022-09-18T02:40:40.668Z,991.82
2022-09-18T02:41:40.637Z,991.78
2022-09-18T02:42:40.650Z,991.81
2022-09-18T02:43:40.633Z,991.79
2022-09-18T02:44:40.625Z,991.80
2022-09-18T02:45:40.597Z,991.72
2022-09-18T02:46:40.715Z,991.77
2022-09-18T02:47:40.623Z,991.74
2022-09-18T02:48:40.596Z,991.70
2022-09-18T02:49:40.589Z,991.75
2022-09-18T02:50:40.598Z,991.69
2022-09-18T02:51:40.647Z,991.72
2022-09-18T02:52:40.616Z,991.70
2022-09-18T02:53:40.591Z,991.73
2022-09-18T02:54:40.596Z,991.75
2022-09-18T02:55:40.484Z,991.70
2022-09-18T02:56:40.478Z,991.68
2022-09-18T02:57:40.469Z,991.69
2022-09-18T02:58:40.479Z,991.59
2022-09-18T02:59:40.612Z,991.62
2022-09-18T03:00:40.481Z,991.56
2022-09-18T03:01:40.596Z,991.53
2022-09-18T03:02:40.516Z,991.44
2022-09-18T03:03:40.404Z,991.44
2022-09-18T03:04:40.451Z,991.45
2022-09-18T03:05:40.382Z,991.44
2022-09-18T03:06:40.367Z,991.46
2022-09-18T03:07:40.557Z,991.42
2022-09-18T03:08:40.408Z,991.41
2022-09-18T03:09:40.378Z,991.44
2022-09-18T03:10:40.369Z,991.48
2022-09-18T03:11:40.363Z,991.44
2022-09-18T03:12:40.321Z,991.41
2022-09-18T03:13:40.293Z,991.36
2022-09-18T03:14:40.292Z,991.46
2022-09-18T03:15:40.268Z,991.38
2022-09-18T03:16:40.265Z,991.37
2022-09-18T03:17:40.268Z,991.36
2022-09-18T03:18:40.285Z,991.34
2022-09-18T03:19:40.226Z,991.34
2022-09-18T03:20:40.237Z,991.28
2022-09-18T03:21:40.219Z,991.26
2022-09-18T03:22:40.212Z,991.31
2022-09-18T03:23:45.337Z,991.30
2022-09-18T03:24:41.174Z,991.31
2022-09-18T03:25:40.174Z,991.32
2022-09-18T03:26:40.192Z,991.29
2022-09-18T03:27:40.148Z,991.23
2022-09-18T03:28:40.181Z,991.28
2022-09-18T03:29:40.131Z,991.35
2022-09-18T03:30:40.111Z,991.32
2022-09-18T03:31:40.185Z,991.31
2022-09-18T03:32:40.129Z,991.33
2022-09-18T03:33:40.080Z,991.36
2022-09-18T03:34:40.092Z,991.34
2022-09-18T03:35:40.060Z,991.41
2022-09-18T03:36:40.070Z,991.40
2022-09-18T03:37:40.031Z,991.44
2022-09-18T03:38:40.053Z,991.36
2022-09-18T03:39:40.148Z,991.34
2022-09-18T03:40:42.126Z,991.32
2022-09-18T03:41:40.994Z,991.30
2022-09-18T03:42:40.037Z,991.28
2022-09-18T03:43:39.970Z,991.29
2022-09-18T03:44:39.972Z,991.36
2022-09-18T03:45:39.949Z,991.33
2022-09-18T03:46:40.158Z,991.33
2022-09-18T03:47:39.919Z,991.35
2022-09-18T03:48:39.930Z,991.34
2022-09-18T03:49:39.926Z,991.37
2022-09-18T03:50:39.889Z,991.32
2022-09-18T03:51:39.898Z,991.32
2022-09-18T03:52:39.873Z,991.35
2022-09-18T03:53:39.889Z,991.42
2022-09-18T03:54:39.858Z,991.38
2022-09-18T03:55:39.971Z,991.35
2022-09-18T03:56:39.848Z,991.34
2022-09-18T03:57:39.831Z,991.34
2022-09-18T03:58:39.835Z,991.37
2022-09-18T03:59:39.826Z,991.36
2022-09-18T04:00:39.780Z,991.32
2022-09-18T04:01:39.811Z,991.41
2022-09-18T04:02:39.824Z,991.36
2022-09-18T04:03:39.751Z,991.33
2022-09-18T04:04:39.747Z,991.33
2022-09-18T04:05:39.754Z,991.43
2022-09-18T04:06:39.708Z,991.38
2022-09-18T04:07:39.713Z,991.36
2022-09-18T04:08:39.699Z,991.36
2022-09-18T04:09:39.718Z,991.36
2022-09-18T04:10:39.700Z,991.36
2022-09-18T04:11:39.782Z,991.39
2022-09-18T04:12:39.647Z,991.41
2022-09-18T04:13:39.648Z,991.40
2022-09-18T04:14:39.673Z,991.41
2022-09-18T04:15:39.615Z,991.48
2022-09-18T04:16:39.607Z,991.43
2022-09-18T04:17:39.646Z,991.40
2022-09-18T04:18:39.581Z,991.38
2022-09-18T04:19:39.611Z,991.41
2022-09-18T04:20:39.586Z,991.43
2022-09-18T04:21:39.553Z,991.38
2022-09-18T04:22:39.537Z,991.41
2022-09-18T04:23:39.538Z,991.42
2022-09-18T04:24:39.549Z,991.39
2022-09-18T04:25:39.527Z,991.37
2022-09-18T04:26:39.495Z,991.39
2022-09-18T04:27:39.602Z,991.38
2022-09-18T04:28:39.469Z,991.41
2022-09-18T04:29:39.479Z,991.39
2022-09-18T04:30:39.453Z,991.46
2022-09-18T04:31:39.471Z,991.41
2022-09-18T04:32:39.429Z,991.45
2022-09-18T04:33:39.429Z,991.44
2022-09-18T04:34:39.446Z,991.47
2022-09-18T04:35:39.398Z,991.44
2022-09-18T04:36:39.393Z,991.47
2022-09-18T04:37:39.397Z,991.50
2022-09-18T04:38:39.368Z,991.53
2022-09-18T04:39:39.369Z,991.50
2022-09-18T04:40:39.435Z,991.51
2022-09-18T04:41:39.336Z,991.55
2022-09-18T04:42:39.326Z,991.54
2022-09-18T04:43:39.439Z,991.49
2022-09-18T04:44:39.312Z,991.48
2022-09-18T04:45:39.305Z,991.50
2022-09-18T04:46:39.317Z,991.52
2022-09-18T04:47:39.284Z,991.51
2022-09-18T04:48:39.261Z,991.58
2022-09-18T04:49:39.288Z,991.56
2022-09-18T04:50:39.271Z,991.60
2022-09-18T04:51:39.270Z,991.58
2022-09-18T04:52:39.245Z,991.57
2022-09-18T04:53:39.217Z,991.62
2022-09-18T04:54:39.217Z,991.59
2022-09-18T04:55:39.202Z,991.55
2022-09-18T04:56:39.176Z,991.61
2022-09-18T04:57:39.206Z,991.56
2022-09-18T04:58:39.145Z,991.68
2022-09-18T04:59:39.270Z,991.55
2022-09-18T05:00:39.187Z,991.57
2022-09-18T05:01:39.152Z,991.60
2022-09-18T05:02:39.109Z,991.64
2022-09-18T05:03:39.133Z,991.61
2022-09-18T05:04:39.148Z,991.66
2022-09-18T05:05:39.081Z,991.69
2022-09-18T05:06:39.054Z,991.76
2022-09-18T05:07:39.049Z,991.74
2022-09-18T05:08:39.055Z,991.76
2022-09-18T05:09:39.071Z,991.73
2022-09-18T05:10:39.016Z,991.79
2022-09-18T05:11:39.011Z,991.76
2022-09-18T05:12:39.037Z,991.69
2022-09-18T05:13:39.037Z,991.77
2022-09-18T05:14:38.998Z,991.79
2022-09-18T05:15:39.081Z,991.72
2022-09-18T05:16:39.089Z,991.72
2022-09-18T05:17:38.982Z,991.75
2022-09-18T05:18:38.946Z,991.77
2022-09-18T05:19:38.932Z,991.79
2022-09-18T05:20:38.941Z,991.75
2022-09-18T05:21:38.895Z,991.81
2022-09-18T05:22:38.881Z,991.81
2022-09-18T05:23:38.901Z,991.88
2022-09-18T05:24:38.894Z,991.85
2022-09-18T05:25:38.860Z,991.83
2022-09-18T05:26:38.881Z,991.88
2022-09-18T05:27:38.863Z,991.89
2022-09-18T05:28:38.845Z,991.85
2022-09-18T05:29:38.874Z,991.87
2022-09-18T05:30:38.846Z,991.85
2022-09-18T05:31:38.997Z,991.83
2022-09-18T05:32:38.791Z,991.85
2022-09-18T05:33:38.806Z,991.83
2022-09-18T05:34:38.798Z,991.83
2022-09-18T05:35:38.752Z,991.90
2022-09-18T05:36:38.746Z,991.88
2022-09-18T05:37:38.741Z,991.87
2022-09-18T05:38:38.739Z,991.92
2022-09-18T05:39:38.732Z,991.87
2022-09-18T05:40:38.739Z,991.95
2022-09-18T05:41:38.704Z,992.00
2022-09-18T05:42:38.688Z,991.95
2022-09-18T05:43:38.659Z,991.99
2022-09-18T05:44:38.715Z,991.91
2022-09-18T05:45:38.632Z,991.95
2022-09-18T05:46:38.758Z,991.95
2022-09-18T05:47:38.742Z,991.92
2022-09-18T05:48:38.612Z,991.90
2022-09-18T05:49:38.603Z,991.91
2022-09-18T05:50:38.581Z,991.93
2022-09-18T05:51:38.593Z,991.96
2022-09-18T05:52:38.634Z,991.93
2022-09-18T05:53:38.582Z,991.95
2022-09-18T05:54:38.555Z,991.95
2022-09-18T05:55:38.598Z,991.99
2022-09-18T05:56:38.559Z,991.99
2022-09-18T05:57:38.499Z,991.99
2022-09-18T05:58:38.499Z,992.01
2022-09-18T05:59:38.545Z,992.05
2022-09-18T06:00:38.484Z,992.04
2022-09-18T06:01:38.539Z,992.04
2022-09-18T06:02:38.575Z,991.98
2022-09-18T06:03:38.685Z,992.05
2022-09-18T06:04:38.426Z,991.97
2022-09-18T06:05:38.417Z,992.05
2022-09-18T06:06:38.441Z,992.00
2022-09-18T06:07:38.432Z,991.98
2022-09-18T06:08:38.419Z,992.05
2022-09-18T06:09:38.422Z,992.10
2022-09-18T06:10:38.409Z,992.04
2022-09-18T06:11:38.382Z,992.02
2022-09-18T06:12:38.342Z,992.08
2022-09-18T06:13:38.359Z,992.16
2022-09-18T06:14:38.388Z,992.18
2022-09-18T06:15:38.325Z,992.16
2022-09-18T06:16:42.156Z,992.20
2022-09-18T06:17:38.362Z,992.15
2022-09-18T06:18:38.286Z,992.16
2022-09-18T06:19:38.396Z,992.13
2022-09-18T06:20:38.342Z,992.13
2022-09-18T06:21:38.243Z,992.17
2022-09-18T06:22:38.248Z,992.11
2022-09-18T06:23:38.220Z,992.14
2022-09-18T06:24:38.290Z,992.10
2022-09-18T06:25:38.240Z,992.10
2022-09-18T06:26:38.217Z,992.12
2022-09-18T06:27:38.175Z,992.16
2022-09-18T06:28:38.168Z,992.16
2022-09-18T06:29:38.181Z,992.17
2022-09-18T06:30:38.235Z,992.17
2022-09-18T06:31:38.237Z,992.14
2022-09-18T06:32:38.136Z,992.16
2022-09-18T06:33:38.134Z,992.13
2022-09-18T06:34:38.931Z,992.15
2022-09-18T06:35:38.204Z,992.14
2022-09-18T06:36:38.103Z,992.19
2022-09-18T06:37:38.066Z,992.15
2022-09-18T06:38:38.086Z,992.11
2022-09-18T06:39:38.084Z,992.14
2022-09-18T06:40:38.124Z,992.15
2022-09-18T06:41:38.074Z,992.17
2022-09-18T06:42:40.641Z,992.11
2022-09-18T06:43:38.005Z,992.14
2022-09-18T06:44:37.992Z,992.11
2022-09-18T06:45:38.046Z,992.05
2022-09-18T06:46:38.108Z,992.08
2022-09-18T06:47:37.967Z,992.12
2022-09-18T06:48:37.941Z,992.14
2022-09-18T06:49:37.969Z,992.13
2022-09-18T06:50:37.958Z,992.10
2022-09-18T06:51:38.037Z,992.18
2022-09-18T06:52:37.909Z,992.18
2022-09-18T06:53:38.014Z,992.15
2022-09-18T06:54:38.023Z,992.18
2022-09-18T06:55:37.884Z,992.18
2022-09-18T06:56:37.895Z,992.18
2022-09-18T06:57:37.880Z,992.11
2022-09-18T06:58:37.857Z,992.14
2022-09-18T06:59:37.905Z,992.16
2022-09-18T07:00:37.853Z,992.09
2022-09-18T07:01:37.936Z,992.12
2022-09-18T07:02:37.871Z,992.17
2022-09-18T07:03:37.842Z,992.14
2022-09-18T07:04:37.776Z,992.07
2022-09-18T07:05:37.813Z,992.14
2022-09-18T07:06:38.065Z,992.14
2022-09-18T07:07:37.884Z,992.16
2022-09-18T07:08:37.778Z,992.12
2022-09-18T07:09:37.815Z,992.10
2022-09-18T07:10:37.766Z,992.09
2022-09-18T07:11:37.722Z,992.11
2022-09-18T07:12:37.698Z,992.17
2022-09-18T07:13:37.680Z,992.09
2022-09-18T07:14:37.685Z,992.18
2022-09-18T07:15:37.667Z,992.18
2022-09-18T07:16:37.691Z,992.19
2022-09-18T07:17:37.662Z,992.18
2022-09-18T07:18:37.636Z,992.21
2022-09-18T07:19:37.633Z,992.15
2022-09-18T07:20:38.275Z,992.17
2022-09-18T07:21:37.590Z,992.20
2022-09-18T07:22:37.616Z,992.05
2022-09-18T07:23:37.702Z,992.13
2022-09-18T07:24:37.557Z,992.16
2022-09-18T07:25:37.572Z,992.14
2022-09-18T07:26:37.621Z,992.09
2022-09-18T07:27:37.518Z,992.09
2022-09-18T07:28:37.598Z,992.11
2022-09-18T07:29:37.522Z,992.17
2022-09-18T07:30:37.522Z,992.06
2022-09-18T07:31:37.607Z,992.06
2022-09-18T07:32:37.468Z,992.02
2022-09-18T07:33:37.490Z,992.08
2022-09-18T07:34:37.505Z,992.03
2022-09-18T07:35:37.439Z,992.09
2022-09-18T07:36:37.443Z,992.08
2022-09-18T07:37:37.435Z,992.12
2022-09-18T07:38:37.437Z,992.17
2022-09-18T07:39:37.537Z,992.20
2022-09-18T07:40:38.066Z,992.15
2022-09-18T07:41:37.365Z,992.21
2022-09-18T07:42:37.416Z,992.23
2022-09-18T07:43:37.363Z,992.19
2022-09-18T07:44:37.366Z,992.15
2022-09-18T07:45:37.392Z,992.21
2022-09-18T07:46:37.397Z,992.24
2022-09-18T07:47:37.301Z,992.24
2022-09-18T07:48:37.295Z,992.20
2022-09-18T07:49:37.309Z,992.17
2022-09-18T07:50:37.288Z,992.18
2022-09-18T07:51:37.301Z,992.22
2022-09-18T07:52:37.258Z,992.24
2022-09-18T07:53:37.261Z,992.20
2022-09-18T07:54:37.272Z,992.28
2022-09-18T07:55:37.364Z,992.27
2022-09-18T07:56:37.211Z,992.26
2022-09-18T07:57:37.215Z,992.30
2022-09-18T07:58:37.211Z,992.25
2022-09-18T07:59:37.197Z,992.26
2022-09-18T08:00:37.180Z,992.19
2022-09-18T08:01:37.249Z,992.26
2022-09-18T08:02:37.337Z,992.25
2022-09-18T08:03:41.258Z,992.28
2022-09-18T08:04:37.639Z,992.30
2022-09-18T08:05:37.128Z,992.32
2022-09-18T08:06:37.093Z,992.31
2022-09-18T08:07:37.179Z,992.33
2022-09-18T08:08:37.070Z,992.30
2022-09-18T08:09:37.091Z,992.29
2022-09-18T08:10:37.116Z,992.31
2022-09-18T08:11:37.154Z,992.25
2022-09-18T08:12:37.055Z,992.29
2022-09-18T08:13:37.099Z,992.26
2022-09-18T08:14:37.072Z,992.30
2022-09-18T08:15:36.999Z,992.26
2022-09-18T08:16:37.041Z,992.18
2022-09-18T08:17:37.010Z,992.21
2022-09-18T08:18:36.995Z,992.24
2022-09-18T08:19:36.988Z,992.26
2022-09-18T08:20:36.946Z,992.21
2022-09-18T08:21:36.960Z,992.25
2022-09-18T08:22:36.936Z,992.25
2022-09-18T08:23:36.901Z,992.24
2022-09-18T08:24:36.918Z,992.22
2022-09-18T08:25:36.882Z,992.17
2022-09-18T08:26:36.874Z,992.19
2022-09-18T08:27:37.011Z,992.22
2022-09-18T08:28:36.854Z,992.22
2022-09-18T08:29:36.856Z,992.21
2022-09-18T08:30:36.860Z,992.25
2022-09-18T08:31:36.983Z,992.25
2022-09-18T08:32:36.810Z,992.31
2022-09-18T08:33:36.813Z,992.29
2022-09-18T08:34:36.823Z,992.26
2022-09-18T08:35:36.775Z,992.31
2022-09-18T08:36:36.782Z,992.28
2022-09-18T08:37:36.762Z,992.29
2022-09-18T08:38:36.754Z,992.25
2022-09-18T08:39:36.744Z,992.33
2022-09-18T08:40:36.852Z,992.23
2022-09-18T08:41:36.704Z,992.34
2022-09-18T08:42:36.701Z,992.32
2022-09-18T08:43:36.801Z,992.30
2022-09-18T08:44:36.711Z,992.33
2022-09-18T08:45:36.665Z,992.29
2022-09-18T08:46:36.776Z,992.31
2022-09-18T08:47:36.648Z,992.30
2022-09-18T08:48:36.632Z,992.27
2022-09-18T08:49:36.636Z,992.27
2022-09-18T08:50:38.766Z,992.27
2022-09-18T08:51:36.602Z,992.31
2022-09-18T08:52:36.584Z,992.31
2022-09-18T08:53:36.593Z,992.28
2022-09-18T08:54:36.621Z,992.23
2022-09-18T08:55:36.585Z,992.26
2022-09-18T08:56:36.545Z,992.22
2022-09-18T08:57:36.531Z,992.34
2022-09-18T08:58:36.521Z,992.25
2022-09-18T08:59:36.661Z,992.23
2022-09-18T09:00:36.613Z,992.27
2022-09-18T09:01:36.503Z,992.27
2022-09-18T09:02:36.561Z,992.21
2022-09-18T09:03:36.503Z,992.22
2022-09-18T09:04:36.493Z,992.21
2022-09-18T09:05:36.465Z,992.21
2022-09-18T09:06:36.449Z,992.20
2022-09-18T09:07:36.426Z,992.20
2022-09-18T09:08:36.411Z,992.21
2022-09-18T09:09:36.438Z,992.14
2022-09-18T09:10:36.418Z,992.18
2022-09-18T09:11:36.373Z,992.18
2022-09-18T09:12:36.369Z,992.22
2022-09-18T09:13:36.377Z,992.22
2022-09-18T09:14:55.992Z,992.20
2022-09-18T09:15:37.504Z,992.20
2022-09-18T09:16:36.354Z,992.24
2022-09-18T09:17:36.366Z,992.23
2022-09-18T09:18:36.313Z,992.20
2022-09-18T09:19:36.317Z,992.25
2022-09-18T09:20:36.302Z,992.30
2022-09-18T09:21:36.274Z,992.28
2022-09-18T09:22:36.285Z,992.34
2022-09-18T09:23:36.260Z,992.31
2022-09-18T09:24:36.269Z,992.27
2022-09-18T09:25:36.248Z,992.29
2022-09-18T09:26:36.289Z,992.30
2022-09-18T09:27:36.201Z,992.34
2022-09-18T09:28:36.207Z,992.31
2022-09-18T09:29:36.208Z,992.34
2022-09-18T09:30:36.173Z,992.34
2022-09-18T09:31:36.370Z,992.35
2022-09-18T09:32:36.198Z,992.31
2022-09-18T09:33:36.130Z,992.28
2022-09-18T09:34:36.142Z,992.39
2022-09-18T09:35:36.108Z,992.30
2022-09-18T09:36:36.141Z,992.29
2022-09-18T09:37:36.088Z,992.36
2022-09-18T09:38:36.116Z,992.37
2022-09-18T09:39:36.088Z,992.35
2022-09-18T09:40:36.148Z,992.32
2022-09-18T09:41:36.049Z,992.36
2022-09-18T09:42:36.115Z,992.27
2022-09-18T09:43:36.062Z,992.28
2022-09-18T09:44:36.027Z,992.31
2022-09-18T09:45:36.037Z,992.22
2022-09-18T09:46:36.044Z,992.27
2022-09-18T09:47:36.130Z,992.27
2022-09-18T09:48:36.021Z,992.17
2022-09-18T09:49:36.002Z,992.21
2022-09-18T09:50:35.991Z,992.25
2022-09-18T09:51:35.985Z,992.17
2022-09-18T09:52:35.938Z,992.16
2022-09-18T09:53:35.919Z,992.15
2022-09-18T09:54:36.105Z,992.17
2022-09-18T09:55:35.951Z,992.15
2022-09-18T09:56:35.882Z,992.14
2022-09-18T09:57:35.897Z,992.14
2022-09-18T09:58:35.870Z,992.16
2022-09-18T09:59:35.869Z,992.08
2022-09-18T10:00:35.902Z,992.05
2022-09-18T10:01:35.963Z,992.12
2022-09-18T10:02:35.869Z,992.12
2022-09-18T10:03:35.922Z,992.04
2022-09-18T10:04:35.840Z,992.09
2022-09-18T10:05:35.788Z,992.10
2022-09-18T10:06:35.798Z,992.12
2022-09-18T10:07:35.792Z,992.11
2022-09-18T10:08:35.759Z,991.98
2022-09-18T10:09:35.781Z,991.97
2022-09-18T10:10:35.723Z,991.93
2022-09-18T10:11:35.723Z,991.94
2022-09-18T10:12:35.700Z,991.89
2022-09-18T10:13:35.696Z,991.96
2022-09-18T10:14:35.714Z,991.88
2022-09-18T10:15:35.681Z,991.83
2022-09-18T10:16:36.063Z,991.91
2022-09-18T10:17:35.704Z,991.90
2022-09-18T10:18:38.827Z,991.84
2022-09-18T10:19:36.647Z,991.87
2022-09-18T10:20:35.739Z,991.85
2022-09-18T10:21:35.603Z,991.83
2022-09-18T10:22:35.608Z,991.80
2022-09-18T10:23:35.619Z,991.82
2022-09-18T10:24:35.613Z,991.71
2022-09-18T10:25:35.628Z,991.71
2022-09-18T10:26:35.549Z,991.72
2022-09-18T10:27:38.643Z,991.67
2022-09-18T10:28:36.346Z,991.68
2022-09-18T10:29:36.199Z,991.66
2022-09-18T10:30:35.537Z,991.60
2022-09-18T10:31:35.637Z,991.59
2022-09-18T10:32:35.511Z,991.60
2022-09-18T10:33:35.498Z,991.53
2022-09-18T10:34:35.523Z,991.58
2022-09-18T10:35:35.718Z,991.55
2022-09-18T10:36:36.328Z,991.48
2022-09-18T10:37:38.276Z,991.47
2022-09-18T10:38:35.420Z,991.49
2022-09-18T10:39:35.467Z,991.50
2022-09-18T10:40:35.468Z,991.51
2022-09-18T10:41:35.401Z,991.41
2022-09-18T10:42:35.435Z,991.42
2022-09-18T10:43:35.445Z,991.38
2022-09-18T10:44:35.469Z,991.42
2022-09-18T10:45:35.346Z,991.44
2022-09-18T10:46:36.201Z,991.40
2022-09-18T10:47:35.318Z,991.36
2022-09-18T10:48:35.355Z,991.37
2022-09-18T10:49:35.320Z,991.43
2022-09-18T10:50:35.311Z,991.44
2022-09-18T10:51:35.408Z,991.45
2022-09-18T10:52:35.286Z,991.45
2022-09-18T10:53:35.408Z,991.42
2022-09-18T10:54:36.298Z,991.41
2022-09-18T10:55:36.061Z,991.37
2022-09-18T10:56:35.244Z,991.34
2022-09-18T10:57:35.214Z,991.26
2022-09-18T10:58:35.630Z,991.29
2022-09-18T10:59:35.231Z,991.24
2022-09-18T11:00:35.299Z,991.22
2022-09-18T11:01:35.266Z,991.31
2022-09-18T11:02:35.302Z,991.20
2022-09-18T11:03:36.032Z,991.25
2022-09-18T11:04:35.159Z,991.21
2022-09-18T11:05:35.125Z,991.22
2022-09-18T11:06:35.132Z,991.20
2022-09-18T11:07:35.229Z,991.23
2022-09-18T11:08:35.128Z,991.15
2022-09-18T11:09:35.095Z,991.04
2022-09-18T11:10:35.088Z,991.14
2022-09-18T11:11:35.060Z,991.18
2022-09-18T11:12:36.554Z,991.12
2022-09-18T11:13:35.044Z,991.01
2022-09-18T11:14:35.084Z,991.07
2022-09-18T11:15:35.014Z,991.02
2022-09-18T11:16:35.134Z,991.01
2022-09-18T11:17:35.106Z,991.01
2022-09-18T11:18:35.186Z,990.98
2022-09-18T11:19:34.999Z,991.02
2022-09-18T11:20:35.194Z,991.03
2022-09-18T11:21:34.965Z,991.01
2022-09-18T11:22:34.947Z,991.00
2022-09-18T11:23:35.050Z,991.04
2022-09-18T11:24:34.949Z,991.11
2022-09-18T11:25:34.899Z,991.13
2022-09-18T11:26:34.918Z,991.12
2022-09-18T11:27:35.591Z,990.94
2022-09-18T11:28:34.872Z,991.00
2022-09-18T11:29:35.595Z,991.12
2022-09-18T11:30:35.684Z,991.05
2022-09-18T11:31:34.899Z,991.09
2022-09-18T11:32:34.896Z,991.07
2022-09-18T11:33:34.822Z,990.97
2022-09-18T11:34:34.845Z,990.83
2022-09-18T11:35:34.805Z,990.80
2022-09-18T11:36:34.835Z,990.88
2022-09-18T11:37:34.797Z,991.01
2022-09-18T11:38:35.227Z,990.82
2022-09-18T11:39:35.718Z,990.91
2022-09-18T11:40:34.783Z,990.94
2022-09-18T11:41:34.723Z,990.87
2022-09-18T11:42:34.712Z,990.72
2022-09-18T11:43:34.711Z,990.71
2022-09-18T11:44:34.720Z,990.68
2022-09-18T11:45:34.762Z,990.70
2022-09-18T11:46:34.730Z,990.68
2022-09-18T11:47:34.679Z,990.60
2022-09-18T11:48:34.852Z,990.60
2022-09-18T11:49:34.639Z,990.57
2022-09-18T11:50:34.744Z,990.68
2022-09-18T11:51:34.614Z,990.60
2022-09-18T11:52:34.654Z,990.63
2022-09-18T11:53:34.587Z,990.60
2022-09-18T11:54:34.648Z,990.63
2022-09-18T11:55:34.699Z,990.58
2022-09-18T11:56:34.639Z,990.60
2022-09-18T11:57:35.556Z,990.65
2022-09-18T11:58:34.541Z,990.69
2022-09-18T11:59:34.580Z,990.66
2022-09-18T12:00:34.555Z,990.82
2022-09-18T12:01:34.502Z,990.80
2022-09-18T12:02:34.702Z,990.84
2022-09-18T12:03:34.602Z,990.76
2022-09-18T12:04:34.621Z,990.73
2022-09-18T12:05:34.800Z,990.58
2022-09-18T12:06:35.189Z,990.50
2022-09-18T12:07:35.743Z,990.56
2022-09-18T12:08:33.072Z,990.57
2022-09-18T12:09:33.095Z,990.61
2022-09-18T12:10:33.041Z,990.48
2022-09-18T12:11:33.169Z,990.53
2022-09-18T12:12:33.123Z,990.53
2022-09-18T12:13:33.112Z,990.50
2022-09-18T12:14:33.294Z,990.46
2022-09-18T12:15:33.298Z,990.40
2022-09-18T12:16:33.051Z,990.29
2022-09-18T12:17:33.008Z,990.34
2022-09-18T12:18:32.953Z,990.39
2022-09-18T12:19:32.953Z,990.40
2022-09-18T12:20:32.954Z,990.38
2022-09-18T12:21:32.928Z,990.41
2022-09-18T12:22:33.044Z,990.47
2022-09-18T12:23:33.510Z,990.34
2022-09-18T12:24:33.553Z,990.29
2022-09-18T12:25:32.875Z,990.38
2022-09-18T12:26:32.869Z,990.37
2022-09-18T12:27:32.965Z,990.31
2022-09-18T12:28:32.830Z,990.38